Terminal Aerodrome Forecast
Issued by NWS

Home | Current Version | Previous Version | Text Only | Print | Product List | Glossary On
Versions: 1 2 3 4 5 6 7 8 9 10 11 12 13 14 15 16 17 18 19 20 21 22 23 24 25 26 27 28 29 30 31 32 33 34 35 36 37 38 39 40 41 42 43 44 45 46 47 48 49 50
000
FTUS45 KBOU 290449 AAA
TAFAPA
TAF AMD
KAPA 290449Z 2905/2924 19006KT P6SM BKN110
     FM290700 02009KT P6SM SCT008 BKN110
      TEMPO 2907/2910 BKN008
     FM291000 33005KT 4SM BR BKN008 OVC015
     FM291500 VRB05KT P6SM SCT020 SCT120
     FM291700 16010KT P6SM SCT080 BKN200
     FM292000 20018G22KT P6SM BKN080 BKN140
      TEMPO 2920/2924 VRB20G35KT TSRA BKN060CB=

USA.gov is the U.S. government's official web portal to all federal, state and local government web resources and services.